Forside
METAR-TAF:

METAR-TAF

Lufthavne :

Mejervig

Lyksborg, Tyskland

Breddekreds: 54-50N, længdekreds: 009-30E, højde: 27 m

Aktuelle vejr

Denne rapport blev lavet for 49 minutter siden, kl. 03:20 UTC
Vind 25 kt fra vest med vindstød på up til 37 kt
Temperatur 6°C
Fugtighed 87%
Tryk 1011 hPa

METAR: ETGG 180320Z AUTO 26025G37KT //// // ////// 06/04 Q1011 ///

Tid: 05:09 (04:09 UTC)


TAF: fraværende

Vejrobservationer og prognoser fra mere end 4000 lufthavne (METAR og TAF).

De gule og røde prikker repræsenterer de meteorologiske stationer.

Flyt musen over at se navnet på stationen.

Så klik over at se vejr observationer og prognoser.

At skifte det kort: Klik på de grønne knapper med et sort kors for at zoome ind; på den grønne knap med en bindestreg for at zoome ud; eller på de grønne pile for tilstødende kort.


METAR-TAF: